Time,TemperatureF,DewpointF,PressureIn,WindDirection,WindDirectionDegrees,WindSpeedMPH,WindSpeedGustMPH,Humidity,HourlyPrecipIn,Conditions,Clouds,dailyrainin,SoftwareType,DateUTC
2013-05-06 00:02:00,49.6,31.8,30.05,SE,124,0.0,0.0,50,0.00,,---,0.00,VWS V12.08,2013-05-06 05:02:00,
2013-05-06 00:17:00,49.6,31.3,30.05,North,353,0.0,0.0,49,0.00,,---,0.00,VWS V12.08,2013-05-06 05:17:00,
2013-05-06 00:47:00,48.2,30.0,30.05,North,353,0.0,0.0,49,0.00,,---,0.00,VWS V12.08,2013-05-06 05:47:00,
2013-05-06 01:02:00,48.2,30.9,30.05,North,353,0.0,0.0,51,0.00,,---,0.00,VWS V12.08,2013-05-06 06:02:00,
2013-05-06 01:17:00,47.8,31.1,30.05,North,353,3.6,3.6,52,0.00,,---,0.00,VWS V12.08,2013-05-06 06:17:00,
2013-05-06 01:32:00,47.7,30.9,30.05,North,353,0.0,3.6,52,0.00,,---,0.00,VWS V12.08,2013-05-06 06:32:00,
2013-05-06 01:47:00,47.3,31.0,30.05,North,353,0.0,0.0,53,0.00,,---,0.00,VWS V12.08,2013-05-06 06:47:00,
2013-05-06 02:02:00,47.1,31.4,30.05,North,353,2.2,3.1,54,0.00,,---,0.00,VWS V12.08,2013-05-06 07:02:00,
2013-05-06 02:17:00,46.8,31.0,30.05,North,353,0.0,3.1,54,0.00,,---,0.00,VWS V12.08,2013-05-06 07:17:00,
2013-05-06 02:32:00,46.2,30.5,30.05,North,353,0.0,0.0,54,0.00,,---,0.00,VWS V12.08,2013-05-06 07:32:00,
2013-05-06 02:47:00,46.4,31.1,30.05,North,353,0.0,0.0,55,0.00,,---,0.00,VWS V12.08,2013-05-06 07:47:00,
2013-05-06 03:02:00,46.4,31.1,30.05,North,353,3.1,3.6,55,0.00,,---,0.00,VWS V12.08,2013-05-06 08:02:00,
2013-05-06 03:17:00,46.2,31.4,30.05,North,353,0.0,3.6,56,0.00,,---,0.00,VWS V12.08,2013-05-06 08:17:00,
2013-05-06 03:32:00,45.7,30.5,30.05,North,353,0.0,3.6,55,0.00,,---,0.00,VWS V12.08,2013-05-06 08:32:00,
2013-05-06 03:47:00,45.1,30.4,30.05,North,353,0.0,0.0,56,0.00,,---,0.00,VWS V12.08,2013-05-06 08:47:00,
2013-05-06 04:02:00,44.8,30.5,30.05,North,350,0.0,0.0,57,0.00,,---,0.00,VWS V12.08,2013-05-06 09:02:00,
2013-05-06 04:17:00,44.4,30.6,30.05,North,353,0.0,0.0,58,0.00,,---,0.00,VWS V12.08,2013-05-06 09:17:00,
2013-05-06 04:32:00,44.8,32.2,30.05,NW,312,4.5,6.3,61,0.00,,---,0.00,VWS V12.08,2013-05-06 09:32:00,
2013-05-06 04:46:00,46.0,32.1,30.05,NW,313,4.0,6.3,58,0.00,,---,0.00,VWS V12.08,2013-05-06 09:46:00,
2013-05-06 05:02:00,45.7,30.9,30.05,NW,309,3.6,4.9,56,0.00,,---,0.00,VWS V12.08,2013-05-06 10:02:00,
2013-05-06 05:16:00,45.9,31.9,30.05,NW,317,6.3,7.6,58,0.00,,---,0.00,VWS V12.08,2013-05-06 10:16:00,
2013-05-06 05:32:00,46.9,29.3,30.05,NNW,330,6.3,6.7,50,0.00,,---,0.00,VWS V12.08,2013-05-06 10:32:00,
2013-05-06 05:47:00,47.3,28.6,30.05,NW,314,6.3,8.1,48,0.00,,---,0.00,VWS V12.08,2013-05-06 10:47:00,
2013-05-06 06:02:00,47.5,28.8,30.05,NNW,329,5.4,8.1,48,0.00,,---,0.00,VWS V12.08,2013-05-06 11:02:00,
2013-05-06 06:17:00,47.3,28.1,30.05,NNE,26,0.0,6.3,47,0.00,,---,0.00,VWS V12.08,2013-05-06 11:17:00,
2013-05-06 06:32:00,46.8,28.1,30.05,North,2,0.0,0.0,48,0.00,,---,0.00,VWS V12.08,2013-05-06 11:32:00,
2013-05-06 06:47:00,47.7,31.9,30.05,NW,316,3.1,4.0,54,0.00,,---,0.00,VWS V12.08,2013-05-06 11:47:00,
2013-05-06 07:02:00,49.8,30.4,30.05,NNW,338,6.3,6.7,47,0.00,,---,0.00,VWS V12.08,2013-05-06 12:02:00,
2013-05-06 07:17:00,51.6,31.5,30.05,North,0,3.1,8.1,46,0.00,,---,0.00,VWS V12.08,2013-05-06 12:17:00,
2013-05-06 07:32:00,54.1,30.4,30.05,NNW,338,5.4,8.1,40,0.00,,---,0.00,VWS V12.08,2013-05-06 12:32:00,
2013-05-06 07:47:00,56.5,27.8,30.05,North,4,8.3,11.0,33,0.00,,---,0.00,VWS V12.08,2013-05-06 12:47:00,
2013-05-06 08:02:00,57.6,28.0,30.05,North,353,4.9,9.2,32,0.00,,---,0.00,VWS V12.08,2013-05-06 13:02:00,
2013-05-06 08:17:00,57.9,27.5,30.05,North,9,6.3,8.7,31,0.00,,---,0.00,VWS V12.08,2013-05-06 13:17:00,
2013-05-06 08:32:00,59.5,28.9,30.05,NNE,19,5.4,8.3,31,0.00,,---,0.00,VWS V12.08,2013-05-06 13:32:00,
2013-05-06 08:46:00,59.9,28.4,30.05,NNE,23,4.9,8.3,30,0.00,,---,0.00,VWS V12.08,2013-05-06 13:46:00,
2013-05-06 09:01:00,60.8,29.2,30.05,NNE,27,8.1,8.7,30,0.00,,---,0.00,VWS V12.08,2013-05-06 14:01:00,
2013-05-06 09:16:00,61.0,29.4,30.05,NNE,25,5.4,8.1,30,0.00,,---,0.00,VWS V12.08,2013-05-06 14:16:00,
2013-05-06 09:31:00,61.3,29.7,30.05,North,4,4.0,6.3,30,0.00,,---,0.00,VWS V12.08,2013-05-06 14:31:00,
2013-05-06 09:47:00,62.1,30.3,30.05,NNW,334,7.6,8.1,30,0.00,,---,0.00,VWS V12.08,2013-05-06 14:47:00,
2013-05-06 10:02:00,61.7,30.0,30.05,North,357,8.1,8.7,30,0.00,,---,0.00,VWS V12.08,2013-05-06 15:02:00,
2013-05-06 10:17:00,62.6,29.9,30.05,NW,322,6.3,8.3,29,0.00,,---,0.00,VWS V12.08,2013-05-06 15:17:00,
2013-05-06 10:32:00,64.0,31.2,30.05,NNW,339,8.1,8.1,29,0.00,,---,0.00,VWS V12.08,2013-05-06 15:32:00,
2013-05-06 10:47:00,65.8,30.0,30.05,NNE,22,2.7,8.3,26,0.00,,---,0.00,VWS V12.08,2013-05-06 15:47:00,
2013-05-06 11:02:00,66.0,30.2,30.05,NNE,18,4.5,6.3,26,0.00,,---,0.00,VWS V12.08,2013-05-06 16:02:00,
2013-05-06 11:17:00,67.5,31.4,30.05,NNE,22,0.0,7.6,26,0.00,,---,0.00,VWS V12.08,2013-05-06 16:17:00,
2013-05-06 11:32:00,70.2,30.7,30.05,North,357,6.3,8.1,23,0.00,,---,0.00,VWS V12.08,2013-05-06 16:32:00,
2013-05-06 11:47:00,71.1,31.4,30.05,NNW,337,2.2,7.6,23,0.00,,---,0.00,VWS V12.08,2013-05-06 16:47:00,
2013-05-06 12:02:00,72.3,31.4,30.05,NNE,29,3.1,8.1,22,0.00,,---,0.00,VWS V12.08,2013-05-06 17:02:00,
2013-05-06 12:17:00,72.5,31.5,30.05,NW,320,0.0,7.6,22,0.00,,---,0.00,VWS V12.08,2013-05-06 17:17:00,
2013-05-06 12:46:00,73.6,32.4,30.05,NNE,31,4.9,8.7,22,0.00,,---,0.00,VWS V12.08,2013-05-06 17:46:00,
2013-05-06 13:01:00,74.7,33.3,30.05,NE,45,8.7,8.7,22,0.00,,---,0.00,VWS V12.08,2013-05-06 18:01:00,
2013-05-06 13:16:00,74.1,32.9,30.05,NNE,18,8.1,10.5,22,0.00,,---,0.00,VWS V12.08,2013-05-06 18:16:00,
2013-05-06 13:31:00,72.9,31.8,30.05,NNE,12,4.9,12.3,22,0.00,,---,0.00,VWS V12.08,2013-05-06 18:31:00,
2013-05-06 13:46:00,73.8,32.6,30.05,NNE,23,7.6,8.1,22,0.00,,---,0.00,VWS V12.08,2013-05-06 18:46:00,
2013-05-06 14:01:00,73.0,32.0,30.05,NE,36,4.9,11.0,22,0.00,,---,0.00,VWS V12.08,2013-05-06 19:01:00,
2013-05-06 14:16:00,72.3,31.4,30.05,East,81,6.3,8.7,22,0.00,,---,0.00,VWS V12.08,2013-05-06 19:16:00,
2013-05-06 14:31:00,72.7,31.7,30.05,North,4,4.0,8.1,22,0.00,,---,0.00,VWS V12.08,2013-05-06 19:31:00,
2013-05-06 14:46:00,72.3,31.4,30.05,SSE,151,2.7,6.3,22,0.00,,---,0.00,VWS V12.08,2013-05-06 19:46:00,
2013-05-06 15:02:00,75.2,32.6,30.05,NNW,346,3.1,5.8,21,0.00,,---,0.00,VWS V12.08,2013-05-06 20:02:00,
2013-05-06 15:16:00,75.7,33.1,30.05,NNE,14,4.0,10.5,21,0.00,,---,0.00,VWS V12.08,2013-05-06 20:16:00,
2013-05-06 15:32:00,74.3,33.0,30.05,NNE,26,5.4,10.5,22,0.00,,---,0.00,VWS V12.08,2013-05-06 20:32:00,
2013-05-06 15:47:00,75.2,32.6,30.05,North,5,7.6,8.1,21,0.00,,---,0.00,VWS V12.08,2013-05-06 20:47:00,
2013-05-06 16:02:00,75.9,33.2,30.05,SE,146,4.9,7.6,21,0.00,,---,0.00,VWS V12.08,2013-05-06 21:02:00,
2013-05-06 16:17:00,74.3,33.0,30.05,ENE,60,3.1,8.7,22,0.00,,---,0.00,VWS V12.08,2013-05-06 21:17:00,
2013-05-06 16:32:00,75.7,33.1,30.05,SSE,158,0.0,8.3,21,0.00,,---,0.00,VWS V12.08,2013-05-06 21:32:00,
2013-05-06 16:47:00,73.8,32.6,30.05,SE,138,0.0,7.6,22,0.00,,---,0.00,VWS V12.08,2013-05-06 21:47:00,
2013-05-06 17:02:00,74.7,33.3,30.05,NNE,15,6.3,10.5,22,0.00,,---,0.00,VWS V12.08,2013-05-06 22:02:00,
2013-05-06 17:17:00,73.0,32.0,30.05,NNE,24,4.0,10.5,22,0.00,,---,0.00,VWS V12.08,2013-05-06 22:17:00,
2013-05-06 17:32:00,73.2,32.1,30.05,NE,38,5.4,7.6,22,0.00,,---,0.00,VWS V12.08,2013-05-06 22:32:00,
2013-05-06 17:47:00,73.8,32.6,30.05,North,0,5.4,6.3,22,0.00,,---,0.00,VWS V12.08,2013-05-06 22:47:00,
2013-05-06 18:02:00,73.6,32.4,30.05,NE,52,4.0,8.1,22,0.00,,---,0.00,VWS V12.08,2013-05-06 23:02:00,
2013-05-06 18:17:00,72.9,31.8,30.05,North,10,4.9,6.3,22,0.00,,---,0.00,VWS V12.08,2013-05-06 23:17:00,
2013-05-06 18:46:00,71.8,28.6,30.05,NNE,17,3.6,6.3,20,0.00,,---,0.00,VWS V12.08,2013-05-06 23:46:00,
2013-05-06 19:01:00,70.3,27.4,30.05,NNW,348,4.0,6.3,20,0.00,,---,0.00,VWS V12.08,2013-05-07 00:01:00,
2013-05-06 19:16:00,69.3,27.7,30.05,North,353,5.4,5.4,21,0.00,,---,0.00,VWS V12.08,2013-05-07 00:16:00,
2013-05-06 19:31:00,68.2,26.8,30.05,NNW,344,2.7,5.4,21,0.00,,---,0.00,VWS V12.08,2013-05-07 00:31:00,
2013-05-06 19:47:00,67.5,26.2,30.05,NNW,345,2.7,4.0,21,0.00,,---,0.00,VWS V12.08,2013-05-07 00:47:00,
2013-05-06 20:02:00,66.4,25.3,30.05,NNW,345,3.1,3.6,21,0.00,,---,0.00,VWS V12.08,2013-05-07 01:02:00,
2013-05-06 20:17:00,64.4,23.6,30.05,NNW,346,0.0,3.6,21,0.00,,---,0.00,VWS V12.08,2013-05-07 01:17:00,
2013-05-06 20:32:00,63.0,23.5,30.05,NNW,345,2.2,3.6,22,0.00,,---,0.00,VWS V12.08,2013-05-07 01:32:00,
2013-05-06 20:47:00,62.2,23.0,30.05,NNW,348,0.0,4.9,22,0.00,,---,0.00,VWS V12.08,2013-05-07 01:47:00,
2013-05-06 21:02:00,61.9,22.6,30.05,NNW,348,0.0,0.0,22,0.00,,---,0.00,VWS V12.08,2013-05-07 02:02:00,
2013-05-06 21:17:00,61.7,25.5,30.05,NNW,346,0.0,5.8,25,0.00,,---,0.00,VWS V12.08,2013-05-07 02:17:00,
2013-05-06 21:32:00,60.4,31.2,30.05,SE,146,4.0,8.7,33,0.00,,---,0.00,VWS V12.08,2013-05-07 02:32:00,
2013-05-06 21:47:00,60.6,29.0,30.05,SSE,147,2.7,4.0,30,0.00,,---,0.00,VWS V12.08,2013-05-07 02:47:00,
2013-05-06 22:02:00,61.7,27.4,30.05,SE,146,0.0,3.1,27,0.00,,---,0.00,VWS V12.08,2013-05-07 03:02:00,
2013-05-06 22:17:00,61.9,27.6,30.05,SSE,147,0.0,2.7,27,0.00,,---,0.00,VWS V12.08,2013-05-07 03:17:00,
2013-05-06 22:32:00,61.3,27.1,30.05,SE,146,0.0,0.0,27,0.00,,---,0.00,VWS V12.08,2013-05-07 03:32:00,
2013-05-06 22:47:00,60.6,29.0,30.05,SSE,147,0.0,2.7,30,0.00,,---,0.00,VWS V12.08,2013-05-07 03:47:00,
2013-05-06 23:02:00,59.5,28.9,30.05,SSE,147,3.6,4.9,31,0.00,,---,0.00,VWS V12.08,2013-05-07 04:02:00,
2013-05-06 23:17:00,60.8,26.6,30.05,SE,143,7.6,8.7,27,0.00,,---,0.00,VWS V12.08,2013-05-07 04:17:00,
2013-05-06 23:32:00,59.9,24.0,30.05,ESE,115,2.7,8.1,25,0.00,,---,0.00,VWS V12.08,2013-05-07 04:32:00,
2013-05-06 23:46:00,59.4,23.6,30.05,SE,134,3.6,5.4,25,0.00,,---,0.00,VWS V12.08,2013-05-07 04:46:00,